createdAt,value
2019-02-04T14:42:42.916Z,0.60
2019-02-04T14:45:36.590Z,4.50
2019-02-04T14:49:08.057Z,3.80
2019-02-04T14:52:44.699Z,3.60
2019-02-04T14:55:50.611Z,3.40
2019-02-04T14:59:16.383Z,2.60
2019-02-04T15:02:53.957Z,2.40
2019-02-04T15:05:39.073Z,2.00
2019-02-04T17:18:27.796Z,1.90
2019-02-04T17:20:58.606Z,0.20
2019-02-04T17:23:29.699Z,0.20
2019-02-04T18:54:22.862Z,0.20
2019-02-04T18:56:53.557Z,0.00
2019-02-04T18:59:24.300Z,0.00
2019-02-04T19:01:55.312Z,0.00
2019-02-04T19:04:26.969Z,-0.10
2019-02-04T19:06:58.179Z,-0.10
2019-02-04T19:09:28.930Z,-0.20
2019-02-04T19:11:59.632Z,-0.20
2019-02-04T19:14:30.335Z,-0.20
2019-02-04T19:17:01.219Z,-0.30
2019-02-04T19:19:32.291Z,-0.30
2019-02-04T19:22:03.082Z,-0.20
2019-02-04T19:24:33.957Z,-0.60
2019-02-04T19:27:04.958Z,-0.40
2019-02-04T19:29:36.332Z,-0.40
2019-02-04T19:32:07.307Z,-0.40
2019-02-04T19:34:38.279Z,-0.40
2019-02-04T19:37:08.955Z,-0.50
2019-02-04T19:39:40.974Z,-0.50
2019-02-04T19:42:11.935Z,-0.50
2019-02-04T19:44:42.955Z,-0.60
2019-02-04T19:47:13.690Z,-0.60
2019-02-04T19:49:45.399Z,-0.60
2019-02-04T19:52:16.263Z,-0.40
2019-02-04T19:54:48.451Z,-0.50
2019-02-04T19:57:29.678Z,-0.60
2019-02-04T20:00:13.505Z,-0.50
2019-02-04T20:02:50.682Z,-0.50
2019-02-04T20:05:39.992Z,-0.50
2019-02-04T20:08:23.667Z,-0.50
2019-02-04T20:11:04.643Z,-0.40
2019-02-04T20:13:49.485Z,-0.40
2019-02-04T20:16:33.097Z,-0.50
2019-02-04T20:19:24.628Z,-0.50
2019-02-04T20:22:00.563Z,-0.40
2019-02-04T20:24:40.742Z,-0.40
2019-02-04T20:27:21.661Z,-0.30
2019-02-04T20:30:07.236Z,-0.40
2019-02-04T20:32:46.908Z,-0.40
2019-02-04T20:35:30.365Z,-0.30
2019-02-04T20:38:10.461Z,-0.40
2019-02-04T20:40:53.902Z,-0.40
2019-02-04T20:43:38.876Z,-0.40
2019-02-04T20:46:22.496Z,-0.40
2019-02-04T20:49:04.322Z,-0.50
2019-02-04T20:51:37.357Z,-0.40
2019-02-04T20:54:20.110Z,-0.40
2019-02-04T20:56:57.960Z,-0.40
2019-02-04T20:59:32.182Z,-0.40
2019-02-04T21:02:11.548Z,-0.40
2019-02-04T21:04:53.113Z,-0.30
2019-02-04T21:07:24.313Z,-0.30
2019-02-04T21:09:55.110Z,-0.30
2019-02-04T21:12:25.829Z,-0.20
2019-02-04T21:14:56.756Z,-0.10
2019-02-04T21:17:27.598Z,0.00
2019-02-04T21:19:58.274Z,0.00
2019-02-04T21:22:30.105Z,0.00
2019-02-04T21:25:00.899Z,0.00
2019-02-04T21:27:31.694Z,0.10
2019-02-04T21:30:02.578Z,0.10
2019-02-04T21:32:33.254Z,0.20
2019-02-04T21:35:04.247Z,0.10
2019-02-04T21:37:34.924Z,0.00
2019-02-04T21:40:08.298Z,0.00
2019-02-04T21:42:40.958Z,0.00
2019-02-04T21:45:32.377Z,0.10
2019-02-04T21:48:03.148Z,0.20
2019-02-04T21:50:33.854Z,0.10
2019-02-04T21:53:04.685Z,0.10
2019-02-04T21:55:36.017Z,0.00
2019-02-04T21:58:08.556Z,0.00
2019-02-04T22:00:42.704Z,0.10
2019-02-04T22:03:13.471Z,0.10
2019-02-04T22:05:44.090Z,0.10
2019-02-04T22:08:14.739Z,-0.10
2019-02-04T22:10:47.909Z,-0.20
2019-02-04T22:13:18.721Z,-0.20
2019-02-04T22:15:50.147Z,-0.20
2019-02-04T22:18:21.034Z,-0.20
2019-02-04T22:20:52.869Z,-0.20
2019-02-04T22:23:23.799Z,-0.20
2019-02-04T22:25:55.113Z,-0.20
2019-02-04T22:28:25.849Z,-0.20
2019-02-04T22:30:57.242Z,-0.30
2019-02-04T22:33:28.063Z,-0.30
2019-02-04T22:36:04.333Z,-0.40
2019-02-04T22:38:35.444Z,-0.30
2019-02-04T22:41:06.665Z,-0.30
2019-02-04T22:43:37.517Z,-0.20
2019-02-04T22:46:08.805Z,-0.20
2019-02-04T22:48:40.625Z,-0.40
2019-02-04T22:51:11.547Z,-0.30
2019-02-04T22:53:42.486Z,-0.30
2019-02-04T22:56:13.550Z,-0.30
2019-02-04T22:58:44.440Z,-0.30
2019-02-04T23:02:07.073Z,-0.20
2019-02-04T23:04:38.123Z,-0.20
2019-02-04T23:07:09.046Z,-0.20
2019-02-04T23:09:41.005Z,-0.20
2019-02-04T23:12:11.822Z,-0.20
2019-02-04T23:14:42.746Z,-0.10
2019-02-04T23:17:13.766Z,-0.20
2019-02-04T23:19:44.488Z,-0.20
2019-02-04T23:22:15.273Z,-0.30
2019-02-04T23:24:47.845Z,-0.20
2019-02-04T23:27:21.215Z,-0.30
2019-02-04T23:29:52.136Z,-0.20
2019-02-04T23:32:22.895Z,-0.10
2019-02-04T23:34:53.850Z,-0.20
2019-02-04T23:37:24.538Z,-0.10
2019-02-04T23:39:55.820Z,-0.10
2019-02-04T23:42:26.455Z,-0.10
2019-02-04T23:44:57.342Z,-0.20
2019-02-04T23:47:31.233Z,-0.10
2019-02-04T23:50:02.059Z,-0.20
2019-02-04T23:52:32.705Z,-0.10
2019-02-04T23:55:03.494Z,-0.10
2019-02-04T23:57:34.184Z,-0.10
